sensor_id;sensor_type;location;lat;lon;timestamp;pressure;altitude;pressure_sealevel;temperature;humidity
25869;BME280;13688;53.154;18.136;2023-11-19T00:01:04;101598.67;;;-0.96;100.00
25869;BME280;13688;53.154;18.136;2023-11-19T00:06:26;101599.69;;;-1.04;100.00
25869;BME280;13688;53.154;18.136;2023-11-19T00:11:49;101594.52;;;-1.12;100.00
25869;BME280;13688;53.154;18.136;2023-11-19T00:17:11;101583.30;;;-1.25;100.00
25869;BME280;13688;53.154;18.136;2023-11-19T00:22:34;101571.06;;;-1.30;100.00
25869;BME280;13688;53.154;18.136;2023-11-19T00:27:59;101566.84;;;-1.42;100.00
25869;BME280;13688;53.154;18.136;2023-11-19T00:33:21;101572.14;;;-1.45;100.00
25869;BME280;13688;53.154;18.136;2023-11-19T00:38:44;101575.73;;;-1.49;100.00
25869;BME280;13688;53.154;18.136;2023-11-19T00:44:07;101563.45;;;-1.50;100.00
25869;BME280;13688;53.154;18.136;2023-11-19T00:49:31;101551.13;;;-1.50;100.00
25869;BME280;13688;53.154;18.136;2023-11-19T00:54:54;101547.75;;;-1.59;100.00
25869;BME280;13688;53.154;18.136;2023-11-19T01:00:17;101528.63;;;-1.75;100.00
25869;BME280;13688;53.154;18.136;2023-11-19T01:05:42;101514.72;;;-1.83;100.00
25869;BME280;13688;53.154;18.136;2023-11-19T01:11:05;101499.88;;;-1.90;100.00
25869;BME280;13688;53.154;18.136;2023-11-19T01:16:31;101513.12;;;-1.96;100.00
25869;BME280;13688;53.154;18.136;2023-11-19T01:21:54;101504.50;;;-2.08;100.00
25869;BME280;13688;53.154;18.136;2023-11-19T01:27:17;101484.44;;;-2.18;100.00
25869;BME280;13688;53.154;18.136;2023-11-19T01:32:45;101475.66;;;-2.18;100.00
25869;BME280;13688;53.154;18.136;2023-11-19T01:38:07;101490.64;;;-2.23;100.00
25869;BME280;13688;53.154;18.136;2023-11-19T01:43:40;101486.24;;;-2.23;100.00
25869;BME280;13688;53.154;18.136;2023-11-19T01:49:02;101469.62;;;-2.26;100.00
25869;BME280;13688;53.154;18.136;2023-11-19T01:54:25;101466.16;;;-2.30;100.00
25869;BME280;13688;53.154;18.136;2023-11-19T01:59:49;101432.02;;;-2.38;100.00
25869;BME280;13688;53.154;18.136;2023-11-19T02:05:13;101411.82;;;-2.37;100.00
25869;BME280;13688;53.154;18.136;2023-11-19T02:10:37;101400.36;;;-2.35;100.00
25869;BME280;13688;53.154;18.136;2023-11-19T02:15:59;101392.48;;;-2.36;100.00
25869;BME280;13688;53.154;18.136;2023-11-19T02:21:22;101385.45;;;-2.36;100.00
25869;BME280;13688;53.154;18.136;2023-11-19T02:26:59;101392.56;;;-2.42;100.00
25869;BME280;13688;53.154;18.136;2023-11-19T02:32:17;101377.66;;;-2.43;100.00
25869;BME280;13688;53.154;18.136;2023-11-19T02:37:40;101359.25;;;-2.45;100.00
25869;BME280;13688;53.154;18.136;2023-11-19T02:43:03;101350.45;;;-2.44;100.00
25869;BME280;13688;53.154;18.136;2023-11-19T02:48:26;101353.95;;;-2.43;100.00
25869;BME280;13688;53.154;18.136;2023-11-19T02:53:48;101327.60;;;-2.40;100.00
25869;BME280;13688;53.154;18.136;2023-11-19T02:59:11;101309.89;;;-2.32;100.00
25869;BME280;13688;53.154;18.136;2023-11-19T03:04:35;101311.64;;;-2.29;100.00
25869;BME280;13688;53.154;18.136;2023-11-19T03:09:57;101290.51;;;-2.26;100.00
25869;BME280;13688;53.154;18.136;2023-11-19T03:15:21;101281.63;;;-2.19;100.00
25869;BME280;13688;53.154;18.136;2023-11-19T03:20:44;101285.06;;;-2.16;100.00
25869;BME280;13688;53.154;18.136;2023-11-19T03:26:10;101270.96;;;-2.13;100.00
25869;BME280;13688;53.154;18.136;2023-11-19T03:31:32;101257.66;;;-2.06;100.00
25869;BME280;13688;53.154;18.136;2023-11-19T03:36:56;101236.59;;;-2.06;100.00
25869;BME280;13688;53.154;18.136;2023-11-19T03:42:19;101211.14;;;-2.07;100.00
25869;BME280;13688;53.154;18.136;2023-11-19T03:47:43;101192.63;;;-2.02;100.00
25869;BME280;13688;53.154;18.136;2023-11-19T03:53:06;101186.49;;;-2.04;100.00
25869;BME280;13688;53.154;18.136;2023-11-19T03:58:28;101184.72;;;-2.02;100.00
25869;BME280;13688;53.154;18.136;2023-11-19T04:03:52;101182.82;;;-1.95;100.00
25869;BME280;13688;53.154;18.136;2023-11-19T04:09:15;101177.45;;;-1.89;100.00
25869;BME280;13688;53.154;18.136;2023-11-19T04:14:37;101173.04;;;-1.89;100.00
25869;BME280;13688;53.154;18.136;2023-11-19T04:20:01;101152.75;;;-1.85;100.00
25869;BME280;13688;53.154;18.136;2023-11-19T04:25:24;101150.05;;;-1.81;100.00
25869;BME280;13688;53.154;18.136;2023-11-19T04:30:47;101138.52;;;-1.77;100.00
25869;BME280;13688;53.154;18.136;2023-11-19T04:36:10;101120.03;;;-1.74;100.00
25869;BME280;13688;53.154;18.136;2023-11-19T04:41:35;101117.36;;;-1.72;100.00
25869;BME280;13688;53.154;18.136;2023-11-19T04:47:03;101119.09;;;-1.71;100.00
25869;BME280;13688;53.154;18.136;2023-11-19T04:52:26;101097.02;;;-1.67;100.00
25869;BME280;13688;53.154;18.136;2023-11-19T04:57:50;101085.65;;;-1.69;100.00
25869;BME280;13688;53.154;18.136;2023-11-19T05:03:12;101073.33;;;-1.68;100.00
25869;BME280;13688;53.154;18.136;2023-11-19T05:08:36;101060.19;;;-1.70;100.00
25869;BME280;13688;53.154;18.136;2023-11-19T05:14:02;101054.84;;;-1.67;100.00
25869;BME280;13688;53.154;18.136;2023-11-19T05:19:25;101035.39;;;-1.61;100.00
25869;BME280;13688;53.154;18.136;2023-11-19T05:24:47;101030.04;;;-1.58;100.00
25869;BME280;13688;53.154;18.136;2023-11-19T05:30:11;101029.09;;;-1.54;100.00
25869;BME280;13688;53.154;18.136;2023-11-19T05:35:34;101014.01;;;-1.49;100.00
25869;BME280;13688;53.154;18.136;2023-11-19T05:40:56;100991.96;;;-1.47;100.00
25869;BME280;13688;53.154;18.136;2023-11-19T05:46:19;100998.02;;;-1.41;100.00
25869;BME280;13688;53.154;18.136;2023-11-19T05:51:43;100995.20;;;-1.35;100.00
25869;BME280;13688;53.154;18.136;2023-11-19T05:57:06;101000.38;;;-1.31;100.00
25869;BME280;13688;53.154;18.136;2023-11-19T06:02:32;100988.78;;;-1.24;100.00
25869;BME280;13688;53.154;18.136;2023-11-19T06:07:55;100979.09;;;-1.23;100.00
25869;BME280;13688;53.154;18.136;2023-11-19T06:13:18;100970.23;;;-1.21;100.00
25869;BME280;13688;53.154;18.136;2023-11-19T06:18:42;100959.59;;;-1.18;100.00
25869;BME280;13688;53.154;18.136;2023-11-19T06:24:05;100943.66;;;-1.13;100.00
25869;BME280;13688;53.154;18.136;2023-11-19T06:29:27;100933.15;;;-1.14;100.00
25869;BME280;13688;53.154;18.136;2023-11-19T06:34:50;100931.33;;;-1.12;100.00
25869;BME280;13688;53.154;18.136;2023-11-19T06:40:14;100912.77;;;-1.09;100.00
25869;BME280;13688;53.154;18.136;2023-11-19T06:45:37;100893.34;;;-1.07;100.00
25869;BME280;13688;53.154;18.136;2023-11-19T06:50:59;100882.77;;;-1.05;100.00
25869;BME280;13688;53.154;18.136;2023-11-19T06:56:29;100883.63;;;-1.05;100.00
25869;BME280;13688;53.154;18.136;2023-11-19T07:01:52;100879.22;;;-1.04;100.00
25869;BME280;13688;53.154;18.136;2023-11-19T07:07:26;100859.48;;;-0.91;100.00
25869;BME280;13688;53.154;18.136;2023-11-19T07:12:50;100857.05;;;-0.99;100.00
25869;BME280;13688;53.154;18.136;2023-11-19T07:18:14;100847.31;;;-0.97;100.00
25869;BME280;13688;53.154;18.136;2023-11-19T07:23:37;100836.69;;;-0.94;100.00
25869;BME280;13688;53.154;18.136;2023-11-19T07:29:01;100837.41;;;-0.89;100.00
25869;BME280;13688;53.154;18.136;2023-11-19T07:34:26;100825.17;;;-0.91;100.00
25869;BME280;13688;53.154;18.136;2023-11-19T07:39:50;100823.28;;;-0.86;100.00
25869;BME280;13688;53.154;18.136;2023-11-19T07:45:13;100817.80;;;-0.80;100.00
25869;BME280;13688;53.154;18.136;2023-11-19T07:50:37;100811.61;;;-0.79;100.00
25869;BME280;13688;53.154;18.136;2023-11-19T07:56:03;100808.89;;;-0.76;100.00
25869;BME280;13688;53.154;18.136;2023-11-19T08:01:25;100795.48;;;-0.70;100.00
25869;BME280;13688;53.154;18.136;2023-11-19T08:06:48;100782.22;;;-0.67;100.00
25869;BME280;13688;53.154;18.136;2023-11-19T08:12:11;100768.91;;;-0.64;100.00
25869;BME280;13688;53.154;18.136;2023-11-19T08:17:34;100758.19;;;-0.59;100.00
25869;BME280;13688;53.154;18.136;2023-11-19T08:22:57;100751.05;;;-0.55;100.00
25869;BME280;13688;53.154;18.136;2023-11-19T08:28:19;100738.50;;;-0.49;100.00
25869;BME280;13688;53.154;18.136;2023-11-19T08:33:44;100713.06;;;-0.51;100.00
25869;BME280;13688;53.154;18.136;2023-11-19T08:39:07;100709.42;;;-0.47;100.00
25869;BME280;13688;53.154;18.136;2023-11-19T08:44:31;100707.64;;;-0.47;100.00
25869;BME280;13688;53.154;18.136;2023-11-19T08:49:54;100698.75;;;-0.44;100.00
25869;BME280;13688;53.154;18.136;2023-11-19T08:55:18;100694.16;;;-0.39;100.00
25869;BME280;13688;53.154;18.136;2023-11-19T09:00:41;100680.87;;;-0.36;100.00
25869;BME280;13688;53.154;18.136;2023-11-19T09:06:04;100668.35;;;-0.31;100.00
25869;BME280;13688;53.154;18.136;2023-11-19T09:11:26;100663.80;;;-0.26;100.00
25869;BME280;13688;53.154;18.136;2023-11-19T09:16:50;100656.55;;;-0.21;100.00
25869;BME280;13688;53.154;18.136;2023-11-19T09:22:13;100648.25;;;-0.10;100.00
25869;BME280;13688;53.154;18.136;2023-11-19T09:27:37;100630.41;;;-0.04;100.00
25869;BME280;13688;53.154;18.136;2023-11-19T09:33:00;100619.03;;;-0.06;100.00
25869;BME280;13688;53.154;18.136;2023-11-19T09:38:23;100617.07;;;-0.01;100.00
25869;BME280;13688;53.154;18.136;2023-11-19T09:43:50;100613.15;;;0.11;100.00
25869;BME280;13688;53.154;18.136;2023-11-19T09:49:14;100601.66;;;0.12;100.00
25869;BME280;13688;53.154;18.136;2023-11-19T09:54:42;100577.80;;;0.14;100.00
25869;BME280;13688;53.154;18.136;2023-11-19T10:00:06;100570.45;;;0.22;100.00
25869;BME280;13688;53.154;18.136;2023-11-19T10:05:30;100552.86;;;0.21;100.00
25869;BME280;13688;53.154;18.136;2023-11-19T10:10:53;100540.50;;;0.21;100.00
25869;BME280;13688;53.154;18.136;2023-11-19T10:16:18;100535.37;;;0.17;100.00
25869;BME280;13688;53.154;18.136;2023-11-19T10:21:42;100518.58;;;0.18;100.00
25869;BME280;13688;53.154;18.136;2023-11-19T10:27:08;100504.50;;;0.17;100.00
25869;BME280;13688;53.154;18.136;2023-11-19T10:32:31;100492.05;;;0.21;100.00
25869;BME280;13688;53.154;18.136;2023-11-19T10:37:54;100484.98;;;0.21;100.00
25869;BME280;13688;53.154;18.136;2023-11-19T10:43:19;100483.86;;;0.27;100.00
25869;BME280;13688;53.154;18.136;2023-11-19T10:48:42;100485.58;;;0.28;100.00
25869;BME280;13688;53.154;18.136;2023-11-19T10:54:12;100468.75;;;0.31;100.00
25869;BME280;13688;53.154;18.136;2023-11-19T10:59:36;100465.25;;;0.30;100.00
25869;BME280;13688;53.154;18.136;2023-11-19T11:05:00;100465.05;;;0.35;100.00
25869;BME280;13688;53.154;18.136;2023-11-19T11:10:25;100445.02;;;0.29;100.00
25869;BME280;13688;53.154;18.136;2023-11-19T11:15:50;100442.41;;;0.27;100.00
25869;BME280;13688;53.154;18.136;2023-11-19T11:21:20;100430.05;;;0.28;100.00
25869;BME280;13688;53.154;18.136;2023-11-19T11:38:23;100384.38;;;0.03;100.00
25869;BME280;13688;53.154;18.136;2023-11-19T11:44:01;100369.02;;;0.12;100.00
25869;BME280;13688;53.154;18.136;2023-11-19T11:49:25;100359.17;;;-0.06;100.00
25869;BME280;13688;53.154;18.136;2023-11-19T11:54:48;100341.05;;;-0.15;100.00
25869;BME280;13688;53.154;18.136;2023-11-19T12:00:21;100323.64;;;-0.21;100.00
25869;BME280;13688;53.154;18.136;2023-11-19T12:05:49;100325.55;;;-0.24;100.00
25869;BME280;13688;53.154;18.136;2023-11-19T12:11:13;100321.27;;;-0.27;100.00
25869;BME280;13688;53.154;18.136;2023-11-19T12:16:37;100304.42;;;-0.24;100.00
25869;BME280;13688;53.154;18.136;2023-11-19T12:22:00;100299.38;;;-0.31;100.00
25869;BME280;13688;53.154;18.136;2023-11-19T12:27:25;100281.50;;;-0.24;100.00
25869;BME280;13688;53.154;18.136;2023-11-19T12:32:49;100258.82;;;-0.30;100.00
25869;BME280;13688;53.154;18.136;2023-11-19T12:38:21;100241.25;;;-0.31;100.00
25869;BME280;13688;53.154;18.136;2023-11-19T12:43:44;100250.37;;;-0.38;100.00
25869;BME280;13688;53.154;18.136;2023-11-19T12:49:06;100235.38;;;-0.37;100.00
25869;BME280;13688;53.154;18.136;2023-11-19T12:54:39;100251.09;;;-0.34;100.00
25869;BME280;13688;53.154;18.136;2023-11-19T13:00:01;100256.45;;;-0.36;100.00
25869;BME280;13688;53.154;18.136;2023-11-19T13:05:30;100241.39;;;-0.34;100.00
25869;BME280;13688;53.154;18.136;2023-11-19T13:10:56;100235.91;;;-0.29;100.00
25869;BME280;13688;53.154;18.136;2023-11-19T13:16:19;100218.12;;;0.17;100.00
25869;BME280;13688;53.154;18.136;2023-11-19T13:21:42;100218.64;;;-0.16;100.00
25869;BME280;13688;53.154;18.136;2023-11-19T13:27:05;100215.25;;;-0.19;100.00
25869;BME280;13688;53.154;18.136;2023-11-19T13:32:27;100209.25;;;-0.23;100.00
25869;BME280;13688;53.154;18.136;2023-11-19T13:37:50;100200.46;;;-0.23;100.00
25869;BME280;13688;53.154;18.136;2023-11-19T13:43:13;100193.63;;;-0.29;100.00
25869;BME280;13688;53.154;18.136;2023-11-19T13:48:35;100179.57;;;-0.30;100.00
25869;BME280;13688;53.154;18.136;2023-11-19T13:53:59;100173.43;;;-0.30;100.00
25869;BME280;13688;53.154;18.136;2023-11-19T13:59:24;100164.78;;;-0.34;100.00
25869;BME280;13688;53.154;18.136;2023-11-19T14:04:47;100147.83;;;-0.28;100.00
25869;BME280;13688;53.154;18.136;2023-11-19T14:10:10;100149.73;;;-0.32;100.00
25869;BME280;13688;53.154;18.136;2023-11-19T14:15:33;100134.94;;;-0.36;100.00
25869;BME280;13688;53.154;18.136;2023-11-19T14:20:58;100122.73;;;-0.38;100.00
25869;BME280;13688;53.154;18.136;2023-11-19T14:26:20;100119.17;;;-0.37;100.00
25869;BME280;13688;53.154;18.136;2023-11-19T14:31:43;100104.28;;;-0.40;100.00
25869;BME280;13688;53.154;18.136;2023-11-19T14:37:06;100096.36;;;-0.40;100.00
25869;BME280;13688;53.154;18.136;2023-11-19T14:42:28;100082.23;;;-0.39;100.00
25869;BME280;13688;53.154;18.136;2023-11-19T14:47:51;100061.24;;;-0.42;100.00
25869;BME280;13688;53.154;18.136;2023-11-19T14:53:17;100060.38;;;-0.42;100.00
25869;BME280;13688;53.154;18.136;2023-11-19T14:58:40;100070.95;;;-0.42;100.00
25869;BME280;13688;53.154;18.136;2023-11-19T15:04:03;100082.37;;;-0.42;100.00
25869;BME280;13688;53.154;18.136;2023-11-19T15:09:27;100086.66;;;-0.39;100.00
25869;BME280;13688;53.154;18.136;2023-11-19T15:14:49;100080.48;;;-0.38;100.00
25869;BME280;13688;53.154;18.136;2023-11-19T15:20:14;100077.87;;;-0.40;100.00
25869;BME280;13688;53.154;18.136;2023-11-19T15:25:38;100067.37;;;-0.41;100.00
25869;BME280;13688;53.154;18.136;2023-11-19T15:31:01;100068.31;;;-0.42;100.00
25869;BME280;13688;53.154;18.136;2023-11-19T15:36:26;100066.59;;;-0.43;100.00
25869;BME280;13688;53.154;18.136;2023-11-19T15:41:49;100054.96;;;-0.39;100.00
25869;BME280;13688;53.154;18.136;2023-11-19T15:47:11;100047.00;;;-0.38;100.00
25869;BME280;13688;53.154;18.136;2023-11-19T15:52:33;100043.54;;;-0.40;100.00
25869;BME280;13688;53.154;18.136;2023-11-19T15:57:56;100041.88;;;-0.22;100.00
25869;BME280;13688;53.154;18.136;2023-11-19T16:03:19;100037.86;;;-0.31;100.00
25869;BME280;13688;53.154;18.136;2023-11-19T16:08:44;100027.44;;;-0.34;100.00
25869;BME280;13688;53.154;18.136;2023-11-19T16:14:08;100022.16;;;-0.34;100.00
25869;BME280;13688;53.154;18.136;2023-11-19T16:19:31;100015.16;;;-0.35;100.00
25869;BME280;13688;53.154;18.136;2023-11-19T16:24:54;100023.01;;;-0.33;100.00
25869;BME280;13688;53.154;18.136;2023-11-19T16:30:17;100008.88;;;-0.32;100.00
25869;BME280;13688;53.154;18.136;2023-11-19T16:35:40;99999.23;;;-0.33;100.00
25869;BME280;13688;53.154;18.136;2023-11-19T16:41:03;100003.59;;;-0.32;100.00
25869;BME280;13688;53.154;18.136;2023-11-19T16:46:26;100005.30;;;-0.31;100.00
25869;BME280;13688;53.154;18.136;2023-11-19T16:51:52;99999.09;;;-0.30;100.00
25869;BME280;13688;53.154;18.136;2023-11-19T16:57:15;99997.27;;;-0.28;100.00
25869;BME280;13688;53.154;18.136;2023-11-19T17:02:38;99995.41;;;-0.26;100.00
25869;BME280;13688;53.154;18.136;2023-11-19T17:08:02;99997.19;;;-0.26;100.00
25869;BME280;13688;53.154;18.136;2023-11-19T17:13:24;99987.41;;;-0.24;100.00
25869;BME280;13688;53.154;18.136;2023-11-19T17:18:47;99979.41;;;-0.23;100.00
25869;BME280;13688;53.154;18.136;2023-11-19T17:24:10;99992.53;;;-0.21;100.00
25869;BME280;13688;53.154;18.136;2023-11-19T17:29:33;99988.11;;;-0.21;100.00
25869;BME280;13688;53.154;18.136;2023-11-19T17:34:56;99986.28;;;-0.19;100.00
25869;BME280;13688;53.154;18.136;2023-11-19T17:40:19;99986.28;;;-0.19;100.00
25869;BME280;13688;53.154;18.136;2023-11-19T17:45:42;99984.54;;;-0.20;100.00
25869;BME280;13688;53.154;18.136;2023-11-19T17:51:07;99982.64;;;-0.16;100.00
25869;BME280;13688;53.154;18.136;2023-11-19T17:56:29;99965.85;;;-0.15;100.00
25869;BME280;13688;53.154;18.136;2023-11-19T18:01:52;99971.06;;;-0.14;100.00
25869;BME280;13688;53.154;18.136;2023-11-19T18:07:15;99964.92;;;-0.14;100.00
25869;BME280;13688;53.154;18.136;2023-11-19T18:12:38;99951.71;;;-0.14;100.00
25869;BME280;13688;53.154;18.136;2023-11-19T18:18:01;99951.71;;;-0.14;100.00
25869;BME280;13688;53.154;18.136;2023-11-19T18:23:24;99954.36;;;-0.14;100.00
25869;BME280;13688;53.154;18.136;2023-11-19T18:28:46;99951.71;;;-0.14;100.00
25869;BME280;13688;53.154;18.136;2023-11-19T18:34:09;99947.36;;;-0.15;100.00
25869;BME280;13688;53.154;18.136;2023-11-19T18:39:33;99944.64;;;-0.14;100.00
25869;BME280;13688;53.154;18.136;2023-11-19T18:44:59;99946.50;;;-0.16;100.00
25869;BME280;13688;53.154;18.136;2023-11-19T18:50:23;99946.35;;;-0.13;100.00
25869;BME280;13688;53.154;18.136;2023-11-19T18:55:48;99947.20;;;-0.12;100.00
25869;BME280;13688;53.154;18.136;2023-11-19T19:01:11;99935.70;;;-0.11;100.00
25869;BME280;13688;53.154;18.136;2023-11-19T19:06:35;99937.42;;;-0.10;100.00
25869;BME280;13688;53.154;18.136;2023-11-19T19:11:58;99930.42;;;-0.11;100.00
25869;BME280;13688;53.154;18.136;2023-11-19T19:17:21;99936.56;;;-0.11;100.00
25869;BME280;13688;53.154;18.136;2023-11-19T19:22:45;99931.23;;;-0.09;100.00
25869;BME280;13688;53.154;18.136;2023-11-19T19:28:08;99937.38;;;-0.09;100.00
25869;BME280;13688;53.154;18.136;2023-11-19T19:33:32;99917.95;;;-0.08;100.00
25869;BME280;13688;53.154;18.136;2023-11-19T19:38:57;99931.08;;;-0.06;100.00
25869;BME280;13688;53.154;18.136;2023-11-19T19:44:22;99943.36;;;-0.05;100.00
25869;BME280;13688;53.154;18.136;2023-11-19T19:49:45;99939.86;;;-0.06;100.00
25869;BME280;13688;53.154;18.136;2023-11-19T19:55:09;99935.35;;;-0.04;100.00
25869;BME280;13688;53.154;18.136;2023-11-19T20:00:32;99944.06;;;-0.02;100.00
25869;BME280;13688;53.154;18.136;2023-11-19T20:05:57;99929.06;;;-0.01;100.00
25869;BME280;13688;53.154;18.136;2023-11-19T20:11:24;99936.02;;;0.02;100.00
25869;BME280;13688;53.154;18.136;2023-11-19T20:16:46;99927.23;;;0.01;100.00
25869;BME280;13688;53.154;18.136;2023-11-19T20:22:12;99936.87;;;0.02;100.00
25869;BME280;13688;53.154;18.136;2023-11-19T20:27:34;99930.65;;;0.03;100.00
25869;BME280;13688;53.154;18.136;2023-11-19T20:32:58;99932.52;;;0.01;100.00
25869;BME280;13688;53.154;18.136;2023-11-19T20:38:21;99928.86;;;0.04;100.00
25869;BME280;13688;53.154;18.136;2023-11-19T20:43:46;99927.15;;;0.03;100.00
25869;BME280;13688;53.154;18.136;2023-11-19T20:49:08;99922.72;;;0.03;100.00
25869;BME280;13688;53.154;18.136;2023-11-19T20:54:31;99933.21;;;0.05;100.00
25869;BME280;13688;53.154;18.136;2023-11-19T20:59:53;99931.35;;;0.07;100.00
25869;BME280;13688;53.154;18.136;2023-11-19T21:05:17;99927.85;;;0.06;100.00
25869;BME280;13688;53.154;18.136;2023-11-19T21:10:40;99922.72;;;0.03;100.00
25869;BME280;13688;53.154;18.136;2023-11-19T21:16:04;99933.06;;;0.08;100.00
25869;BME280;13688;53.154;18.136;2023-11-19T21:21:27;99933.14;;;0.06;100.00
25869;BME280;13688;53.154;18.136;2023-11-19T21:26:50;99930.50;;;0.06;100.00
25869;BME280;13688;53.154;18.136;2023-11-19T21:32:12;99929.48;;;0.09;100.00
25869;BME280;13688;53.154;18.136;2023-11-19T21:37:35;99932.13;;;0.09;100.00
25869;BME280;13688;53.154;18.136;2023-11-19T21:42:57;99939.94;;;0.12;100.00
25869;BME280;13688;53.154;18.136;2023-11-19T21:48:20;99940.05;;;0.09;100.00
25869;BME280;13688;53.154;18.136;2023-11-19T21:53:43;99924.20;;;0.09;100.00
25869;BME280;13688;53.154;18.136;2023-11-19T21:59:06;99938.06;;;0.14;100.00
25869;BME280;13688;53.154;18.136;2023-11-19T22:04:28;99931.84;;;0.15;100.00
25869;BME280;13688;53.154;18.136;2023-11-19T22:09:51;99923.91;;;0.15;100.00
25869;BME280;13688;53.154;18.136;2023-11-19T22:15:14;99918.55;;;0.16;100.00
25869;BME280;13688;53.154;18.136;2023-11-19T22:20:36;99908.83;;;0.17;100.00
25869;BME280;13688;53.154;18.136;2023-11-19T22:25:59;99900.05;;;0.16;100.00
25869;BME280;13688;53.154;18.136;2023-11-19T22:31:21;99905.34;;;0.16;100.00
25869;BME280;13688;53.154;18.136;2023-11-19T22:36:45;99905.26;;;0.18;100.00
25869;BME280;13688;53.154;18.136;2023-11-19T22:42:08;99899.84;;;0.21;100.00
25869;BME280;13688;53.154;18.136;2023-11-19T22:47:30;99899.92;;;0.19;100.00
25869;BME280;13688;53.154;18.136;2023-11-19T22:52:53;99901.63;;;0.20;100.00
25869;BME280;13688;53.154;18.136;2023-11-19T22:58:16;99915.63;;;0.22;100.00
25869;BME280;13688;53.154;18.136;2023-11-19T23:03:40;99904.04;;;0.25;100.00
25869;BME280;13688;53.154;18.136;2023-11-19T23:09:03;99911.89;;;0.26;100.00
25869;BME280;13688;53.154;18.136;2023-11-19T23:14:25;99909.25;;;0.26;100.00
25869;BME280;13688;53.154;18.136;2023-11-19T23:19:49;99902.05;;;0.30;100.00
25869;BME280;13688;53.154;18.136;2023-11-19T23:25:15;99915.10;;;0.33;100.00
25869;BME280;13688;53.154;18.136;2023-11-19T23:30:41;99908.19;;;0.31;100.00
25869;BME280;13688;53.154;18.136;2023-11-19T23:36:03;99900.25;;;0.31;100.00
25869;BME280;13688;53.154;18.136;2023-11-19T23:41:26;99898.47;;;0.31;100.00
25869;BME280;13688;53.154;18.136;2023-11-19T23:46:49;99893.95;;;0.33;100.00
25869;BME280;13688;53.154;18.136;2023-11-19T23:52:12;99886.09;;;0.32;100.00
25869;BME280;13688;53.154;18.136;2023-11-19T23:57:34;99880.81;;;0.32;100.00
